createdAt,value
2022-08-30T00:02:47.717Z,75.01
2022-08-30T00:07:50.818Z,74.39
2022-08-30T00:12:52.793Z,76.03
2022-08-30T00:17:59.752Z,75.17
2022-08-30T00:23:01.768Z,76.08
2022-08-30T00:28:04.196Z,77.03
2022-08-30T00:33:06.015Z,76.85
2022-08-30T00:38:08.523Z,76.96
2022-08-30T00:43:27.770Z,77.92
2022-08-30T00:48:31.308Z,78.08
2022-08-30T00:53:38.024Z,76.77
2022-08-30T00:58:44.071Z,76.95
2022-08-30T01:03:46.829Z,78.04
2022-08-30T01:08:48.795Z,78.61
2022-08-30T01:13:53.806Z,79.56
2022-08-30T01:18:57.723Z,79.38
2022-08-30T01:24:02.158Z,80.22
2022-08-30T01:29:15.498Z,80.95
2022-08-30T01:34:17.481Z,81.78
2022-08-30T01:39:19.420Z,81.19
2022-08-30T01:44:21.150Z,81.79
2022-08-30T01:49:27.797Z,82.46
2022-08-30T01:54:33.349Z,82.31
2022-08-30T01:59:54.066Z,82.84
2022-08-30T02:05:00.878Z,82.57
2022-08-30T02:10:04.991Z,83.52
2022-08-30T02:15:07.706Z,83.48
2022-08-30T02:20:21.823Z,84.03
2022-08-30T02:25:23.796Z,84.13
2022-08-30T02:30:25.599Z,84.29
2022-08-30T02:35:27.846Z,84.28
2022-08-30T02:40:31.689Z,84.23
2022-08-30T02:45:38.214Z,84.04
2022-08-30T02:50:42.884Z,84.22
2022-08-30T02:55:44.730Z,84.16
2022-08-30T03:00:47.464Z,84.78
2022-08-30T03:05:49.271Z,85.17
2022-08-30T03:10:51.085Z,85.40
2022-08-30T03:15:52.722Z,84.52
2022-08-30T03:20:55.064Z,84.54
2022-08-30T03:25:57.522Z,84.79
2022-08-30T03:30:59.317Z,84.53
2022-08-30T03:36:02.276Z,85.10
2022-08-30T03:41:05.680Z,84.74
2022-08-30T03:46:12.578Z,84.59
2022-08-30T03:51:14.350Z,84.38
2022-08-30T03:56:24.548Z,84.56
2022-08-30T04:01:26.398Z,84.97
2022-08-30T04:06:28.433Z,85.15
2022-08-30T04:11:30.228Z,85.59
2022-08-30T04:16:32.126Z,85.39
2022-08-30T04:21:34.042Z,85.84
2022-08-30T04:26:44.553Z,85.97
2022-08-30T04:31:46.773Z,86.30
2022-08-30T04:36:49.912Z,85.85
2022-08-30T04:41:52.355Z,85.90
2022-08-30T04:46:54.261Z,85.85
2022-08-30T04:51:56.058Z,85.76
2022-08-30T04:56:57.798Z,86.10
2022-08-30T05:02:00.163Z,85.91
2022-08-30T05:07:01.930Z,85.94
2022-08-30T05:12:03.761Z,86.03
2022-08-30T05:17:05.489Z,86.09
2022-08-30T05:22:07.747Z,85.75
2022-08-30T05:27:09.536Z,86.16
2022-08-30T05:32:15.210Z,85.69
2022-08-30T05:37:24.085Z,85.22
2022-08-30T05:42:26.050Z,85.26
2022-08-30T05:47:28.379Z,84.91
2022-08-30T05:52:30.137Z,84.85
2022-08-30T05:57:33.942Z,85.05
2022-08-30T06:02:53.583Z,85.22
2022-08-30T06:08:05.289Z,85.20
2022-08-30T06:13:07.377Z,85.23
2022-08-30T06:18:14.658Z,85.00
2022-08-30T06:23:17.715Z,84.67
2022-08-30T06:28:19.691Z,83.96
2022-08-30T06:33:23.666Z,84.45
2022-08-30T06:38:40.293Z,83.04
2022-08-30T06:43:50.087Z,82.63
2022-08-30T06:48:56.168Z,81.13
2022-08-30T06:53:58.821Z,79.41
2022-08-30T06:59:01.822Z,78.00
2022-08-30T07:04:04.786Z,76.14
2022-08-30T07:09:06.512Z,74.97
2022-08-30T07:14:38.511Z,72.23
2022-08-30T07:19:41.402Z,70.35
2022-08-30T07:24:45.386Z,69.84
2022-08-30T07:29:49.411Z,67.23
2022-08-30T07:34:51.740Z,66.40
2022-08-30T07:39:53.564Z,62.81
2022-08-30T07:45:04.696Z,63.37
2022-08-30T07:50:08.800Z,60.65
2022-08-30T07:55:10.704Z,60.13
2022-08-30T08:00:12.852Z,58.94
2022-08-30T08:05:17.348Z,58.35
2022-08-30T08:10:24.567Z,57.11
2022-08-30T08:15:26.582Z,56.70
2022-08-30T08:20:28.785Z,55.41
2022-08-30T08:25:31.287Z,55.30
2022-08-30T08:30:36.411Z,54.04
2022-08-30T08:35:43.221Z,54.50
2022-08-30T08:41:13.132Z,54.04
2022-08-30T08:46:41.117Z,52.96
2022-08-30T08:52:06.862Z,51.82
2022-08-30T08:57:13.749Z,51.88
2022-08-30T09:02:29.499Z,51.45
2022-08-30T09:07:37.091Z,51.88
2022-08-30T09:12:38.818Z,51.96
2022-08-30T09:17:49.937Z,52.52
2022-08-30T09:22:51.612Z,51.33
2022-08-30T09:28:12.138Z,49.79
2022-08-30T09:33:21.340Z,49.96
2022-08-30T09:38:30.451Z,49.81
2022-08-30T09:43:34.695Z,49.09
2022-08-30T09:48:45.061Z,48.67
2022-08-30T09:54:19.314Z,49.39
2022-08-30T09:59:51.184Z,48.45
2022-08-30T10:05:01.683Z,48.20
2022-08-30T10:10:09.385Z,47.81
2022-08-30T10:15:32.267Z,47.38
2022-08-30T10:20:56.667Z,48.77
2022-08-30T10:26:34.321Z,47.51
2022-08-30T10:31:46.076Z,49.06
2022-08-30T10:36:55.378Z,47.90
2022-08-30T10:42:07.823Z,48.52
2022-08-30T10:47:50.309Z,46.89
2022-08-30T10:53:10.545Z,45.21
2022-08-30T10:58:12.796Z,45.71
2022-08-30T11:03:51.681Z,51.81
2022-08-30T11:09:08.435Z,46.05
2022-08-30T11:14:16.059Z,46.80
2022-08-30T11:19:23.800Z,46.83
2022-08-30T11:24:27.924Z,45.92
2022-08-30T11:29:37.460Z,45.92
2022-08-30T11:34:45.311Z,46.50
2022-08-30T11:39:47.010Z,45.44
2022-08-30T11:44:48.680Z,45.13
2022-08-30T11:50:08.571Z,45.04
2022-08-30T11:55:45.197Z,45.57
2022-08-30T12:00:51.429Z,44.91
2022-08-30T12:05:59.918Z,45.43
2022-08-30T12:11:26.626Z,45.38
2022-08-30T12:16:28.348Z,44.18
2022-08-30T12:21:43.802Z,44.20
2022-08-30T12:26:49.878Z,43.60
2022-08-30T12:31:56.339Z,47.26
2022-08-30T12:37:11.323Z,44.46
2022-08-30T12:42:35.311Z,43.23
2022-08-30T12:48:03.414Z,47.16
2022-08-30T12:53:14.156Z,45.09
2022-08-30T12:58:16.851Z,46.49
2022-08-30T13:03:37.505Z,43.30
2022-08-30T13:08:45.685Z,42.56
2022-08-30T13:13:52.353Z,42.93
2022-08-30T13:19:14.966Z,41.02
2022-08-30T13:24:16.948Z,39.32
2022-08-30T13:29:22.208Z,49.78
2022-08-30T13:34:24.027Z,40.94
2022-08-30T13:39:26.088Z,40.92
2022-08-30T13:44:28.029Z,40.98
2022-08-30T13:49:50.692Z,41.52
2022-08-30T13:54:55.214Z,36.37
2022-08-30T13:59:57.132Z,38.24
2022-08-30T14:05:02.833Z,36.42
2022-08-30T14:10:45.607Z,38.13
2022-08-30T14:15:28.478Z,38.84
2022-08-30T14:20:30.651Z,38.92
2022-08-30T14:25:32.839Z,39.08
2022-08-30T14:30:34.779Z,37.44
2022-08-30T14:35:36.623Z,38.35
2022-08-30T14:40:38.572Z,37.92
2022-08-30T14:45:40.442Z,40.54
2022-08-30T14:50:44.076Z,38.68
2022-08-30T14:55:45.821Z,45.35
2022-08-30T15:00:52.516Z,42.56
2022-08-30T15:05:54.440Z,39.96
2022-08-30T15:10:56.483Z,42.03
2022-08-30T15:15:58.270Z,40.12
2022-08-30T15:21:00.522Z,43.29
2022-08-30T15:26:02.643Z,43.45
2022-08-30T15:31:08.557Z,39.83
2022-08-30T15:36:12.163Z,41.08
2022-08-30T15:41:15.013Z,47.79
2022-08-30T15:46:29.609Z,41.13
2022-08-30T15:51:38.827Z,40.36
2022-08-30T15:56:44.521Z,41.70
2022-08-30T16:01:47.730Z,41.12
2022-08-30T16:06:50.004Z,41.46
2022-08-30T16:11:51.963Z,40.87
2022-08-30T16:16:55.239Z,43.84
2022-08-30T16:21:57.665Z,40.91
2022-08-30T16:26:59.577Z,42.63
2022-08-30T16:32:02.371Z,41.27
2022-08-30T16:37:04.191Z,40.64
2022-08-30T16:42:08.006Z,40.65
2022-08-30T16:47:13.360Z,41.49
2022-08-30T16:52:16.198Z,48.83
2022-08-30T16:57:19.963Z,43.15
2022-08-30T17:02:22.381Z,42.32
2022-08-30T17:07:24.173Z,44.38
2022-08-30T17:12:26.311Z,44.82
2022-08-30T17:17:28.003Z,45.61
2022-08-30T17:22:35.182Z,49.32
2022-08-30T17:27:37.699Z,49.53
2022-08-30T17:32:39.685Z,49.99
2022-08-30T17:37:42.281Z,49.85
2022-08-30T17:42:45.315Z,54.02
2022-08-30T17:47:48.260Z,51.36
2022-08-30T17:52:50.342Z,51.57
2022-08-30T17:58:16.186Z,53.64
2022-08-30T18:03:17.968Z,51.78
2022-08-30T18:08:21.709Z,51.93
2022-08-30T18:13:28.562Z,52.81
2022-08-30T18:18:32.612Z,52.48
2022-08-30T18:23:35.431Z,53.27
2022-08-30T18:28:41.277Z,52.93
2022-08-30T18:33:43.078Z,53.30
2022-08-30T18:38:45.523Z,53.97
2022-08-30T18:44:01.805Z,54.93
2022-08-30T18:49:16.414Z,54.81
2022-08-30T18:54:25.425Z,55.65
2022-08-30T18:59:35.242Z,56.36
2022-08-30T19:04:43.398Z,56.47
2022-08-30T19:09:48.901Z,57.25
2022-08-30T19:14:51.130Z,57.50
2022-08-30T19:19:53.697Z,57.76
2022-08-30T19:24:55.483Z,58.03
2022-08-30T19:29:58.212Z,58.80
2022-08-30T19:35:00.211Z,58.46
2022-08-30T19:40:09.138Z,58.93
2022-08-30T19:45:12.855Z,58.41
2022-08-30T19:50:15.860Z,59.86
2022-08-30T19:55:17.739Z,60.29
2022-08-30T20:00:25.586Z,60.65
2022-08-30T20:05:27.415Z,61.19
2022-08-30T20:10:36.386Z,61.33
2022-08-30T20:15:38.517Z,61.92
2022-08-30T20:20:40.212Z,61.74
2022-08-30T20:25:41.997Z,62.26
2022-08-30T20:30:43.737Z,62.51
2022-08-30T20:35:49.044Z,62.68
2022-08-30T20:40:54.112Z,63.05
2022-08-30T20:45:56.473Z,63.83
2022-08-30T20:50:58.424Z,63.86
2022-08-30T20:56:00.359Z,63.80
2022-08-30T21:01:02.163Z,63.63
2022-08-30T21:06:04.192Z,64.00
2022-08-30T21:11:06.460Z,63.63
2022-08-30T21:16:08.282Z,63.42
2022-08-30T21:21:21.397Z,63.28
2022-08-30T21:26:24.220Z,62.76
2022-08-30T21:31:30.374Z,62.77
2022-08-30T21:36:47.494Z,62.76
2022-08-30T21:41:53.400Z,61.99
2022-08-30T21:46:55.400Z,62.22
2022-08-30T21:51:57.183Z,62.18
2022-08-30T21:57:00.684Z,61.91
2022-08-30T22:02:02.480Z,61.69
2022-08-30T22:07:06.596Z,61.66
2022-08-30T22:12:08.407Z,61.75
2022-08-30T22:17:10.127Z,61.36
2022-08-30T22:22:13.395Z,61.44
2022-08-30T22:27:15.140Z,61.02
2022-08-30T22:32:16.831Z,60.85
2022-08-30T22:37:19.648Z,61.14
2022-08-30T22:46:20.452Z,60.67
2022-08-30T22:51:34.411Z,60.57
2022-08-30T22:56:38.170Z,60.62
2022-08-30T23:01:43.814Z,60.49
2022-08-30T23:06:50.052Z,61.06
2022-08-30T23:11:51.894Z,60.57
2022-08-30T23:16:53.705Z,60.18
2022-08-30T23:21:55.584Z,60.19
2022-08-30T23:27:15.837Z,60.49
2022-08-30T23:32:36.826Z,60.28
2022-08-30T23:37:57.235Z,60.36
2022-08-30T23:43:17.728Z,60.12
2022-08-30T23:48:38.045Z,60.23
2022-08-30T23:53:58.577Z,59.93
2022-08-30T23:59:18.892Z,60.81
